sensor_id;sensor_type;location;lat;lon;timestamp;temperature;humidity
51719;DHT22;37795;53.236;5.704;2023-01-09T00:00:42;6.50;83.70
51719;DHT22;37795;53.236;5.704;2023-01-09T00:03:08;6.50;83.90
51719;DHT22;37795;53.236;5.704;2023-01-09T00:05:34;6.50;84.10
51719;DHT22;37795;53.236;5.704;2023-01-09T00:07:59;6.40;84.40
51719;DHT22;37795;53.236;5.704;2023-01-09T00:10:25;6.50;84.50
51719;DHT22;37795;53.236;5.704;2023-01-09T00:12:51;6.50;84.50
51719;DHT22;37795;53.236;5.704;2023-01-09T00:15:17;6.50;84.50
51719;DHT22;37795;53.236;5.704;2023-01-09T00:17:42;6.40;84.70
51719;DHT22;37795;53.236;5.704;2023-01-09T00:20:09;6.50;84.90
51719;DHT22;37795;53.236;5.704;2023-01-09T00:22:36;6.50;85.00
51719;DHT22;37795;53.236;5.704;2023-01-09T00:25:02;6.50;84.90
51719;DHT22;37795;53.236;5.704;2023-01-09T00:27:33;6.60;84.90
51719;DHT22;37795;53.236;5.704;2023-01-09T00:29:59;6.70;84.80
51719;DHT22;37795;53.236;5.704;2023-01-09T00:32:26;6.70;84.60
51719;DHT22;37795;53.236;5.704;2023-01-09T00:34:52;6.70;84.60
51719;DHT22;37795;53.236;5.704;2023-01-09T00:37:18;6.70;84.60
51719;DHT22;37795;53.236;5.704;2023-01-09T00:39:44;6.80;84.40
51719;DHT22;37795;53.236;5.704;2023-01-09T00:42:13;6.80;84.40
51719;DHT22;37795;53.236;5.704;2023-01-09T00:44:50;6.80;84.20
51719;DHT22;37795;53.236;5.704;2023-01-09T00:47:24;6.80;84.00
51719;DHT22;37795;53.236;5.704;2023-01-09T00:49:51;6.80;84.00
51719;DHT22;37795;53.236;5.704;2023-01-09T00:52:17;6.80;84.00
51719;DHT22;37795;53.236;5.704;2023-01-09T00:54:44;6.80;83.90
51719;DHT22;37795;53.236;5.704;2023-01-09T00:57:11;6.80;83.70
51719;DHT22;37795;53.236;5.704;2023-01-09T00:59:38;6.80;83.80
51719;DHT22;37795;53.236;5.704;2023-01-09T01:02:04;6.70;83.70
51719;DHT22;37795;53.236;5.704;2023-01-09T01:04:30;6.70;83.80
51719;DHT22;37795;53.236;5.704;2023-01-09T01:07:14;6.70;83.50
51719;DHT22;37795;53.236;5.704;2023-01-09T01:09:58;6.70;83.40
51719;DHT22;37795;53.236;5.704;2023-01-09T01:12:24;6.70;83.10
51719;DHT22;37795;53.236;5.704;2023-01-09T01:14:51;6.70;82.90
51719;DHT22;37795;53.236;5.704;2023-01-09T01:17:17;6.70;82.50
51719;DHT22;37795;53.236;5.704;2023-01-09T01:19:43;6.70;82.00
51719;DHT22;37795;53.236;5.704;2023-01-09T01:22:09;6.60;81.80
51719;DHT22;37795;53.236;5.704;2023-01-09T01:24:34;6.60;81.70
51719;DHT22;37795;53.236;5.704;2023-01-09T01:27:00;6.60;81.80
51719;DHT22;37795;53.236;5.704;2023-01-09T01:29:26;6.50;82.00
51719;DHT22;37795;53.236;5.704;2023-01-09T01:31:52;6.40;82.20
51719;DHT22;37795;53.236;5.704;2023-01-09T01:34:17;6.40;82.20
51719;DHT22;37795;53.236;5.704;2023-01-09T01:36:43;6.40;82.20
51719;DHT22;37795;53.236;5.704;2023-01-09T01:39:09;6.30;82.20
51719;DHT22;37795;53.236;5.704;2023-01-09T01:41:36;6.20;81.90
51719;DHT22;37795;53.236;5.704;2023-01-09T01:44:03;6.20;81.80
51719;DHT22;37795;53.236;5.704;2023-01-09T01:46:30;6.10;81.70
51719;DHT22;37795;53.236;5.704;2023-01-09T01:51:30;6.00;81.80
51719;DHT22;37795;53.236;5.704;2023-01-09T01:54:00;6.00;81.90
51719;DHT22;37795;53.236;5.704;2023-01-09T01:56:41;5.90;81.70
51719;DHT22;37795;53.236;5.704;2023-01-09T02:01:47;5.90;81.50
51719;DHT22;37795;53.236;5.704;2023-01-09T02:04:13;5.80;81.20
51719;DHT22;37795;53.236;5.704;2023-01-09T02:06:40;5.80;81.10
51719;DHT22;37795;53.236;5.704;2023-01-09T02:09:06;5.80;80.90
51719;DHT22;37795;53.236;5.704;2023-01-09T02:11:33;5.70;80.80
51719;DHT22;37795;53.236;5.704;2023-01-09T02:13:59;5.70;80.50
51719;DHT22;37795;53.236;5.704;2023-01-09T02:16:33;5.60;80.80
51719;DHT22;37795;53.236;5.704;2023-01-09T02:19:12;5.60;80.80
51719;DHT22;37795;53.236;5.704;2023-01-09T02:22:07;5.50;80.90
51719;DHT22;37795;53.236;5.704;2023-01-09T02:25:13;5.40;81.30
51719;DHT22;37795;53.236;5.704;2023-01-09T02:30:52;5.30;81.30
51719;DHT22;37795;53.236;5.704;2023-01-09T02:36:29;5.30;81.60
51719;DHT22;37795;53.236;5.704;2023-01-09T02:41:42;5.20;81.80
51719;DHT22;37795;53.236;5.704;2023-01-09T02:44:23;5.20;82.20
51719;DHT22;37795;53.236;5.704;2023-01-09T02:49:54;5.10;82.30
51719;DHT22;37795;53.236;5.704;2023-01-09T02:52:52;5.00;82.50
51719;DHT22;37795;53.236;5.704;2023-01-09T02:55:55;5.00;83.30
51719;DHT22;37795;53.236;5.704;2023-01-09T02:59:24;5.00;84.00
51719;DHT22;37795;53.236;5.704;2023-01-09T03:01:34;5.00;84.10
51719;DHT22;37795;53.236;5.704;2023-01-09T03:04:14;5.10;83.90
51719;DHT22;37795;53.236;5.704;2023-01-09T03:06:53;5.10;83.80
51719;DHT22;37795;53.236;5.704;2023-01-09T03:09:23;5.00;83.40
51719;DHT22;37795;53.236;5.704;2023-01-09T03:11:58;5.00;83.40
51719;DHT22;37795;53.236;5.704;2023-01-09T03:14:25;5.00;83.40
51719;DHT22;37795;53.236;5.704;2023-01-09T03:16:55;5.00;83.30
51719;DHT22;37795;53.236;5.704;2023-01-09T03:19:25;4.90;83.30
51719;DHT22;37795;53.236;5.704;2023-01-09T03:21:54;4.90;83.20
51719;DHT22;37795;53.236;5.704;2023-01-09T03:24:20;4.90;83.10
51719;DHT22;37795;53.236;5.704;2023-01-09T03:26:46;4.70;82.90
51719;DHT22;37795;53.236;5.704;2023-01-09T03:29:12;4.70;83.30
51719;DHT22;37795;53.236;5.704;2023-01-09T03:31:38;4.70;83.30
51719;DHT22;37795;53.236;5.704;2023-01-09T03:34:03;4.60;83.80
51719;DHT22;37795;53.236;5.704;2023-01-09T03:36:29;4.60;84.50
51719;DHT22;37795;53.236;5.704;2023-01-09T03:38:55;4.60;84.60
51719;DHT22;37795;53.236;5.704;2023-01-09T03:41:21;4.60;85.00
51719;DHT22;37795;53.236;5.704;2023-01-09T03:43:46;4.50;85.50
51719;DHT22;37795;53.236;5.704;2023-01-09T03:46:14;4.60;85.50
51719;DHT22;37795;53.236;5.704;2023-01-09T03:48:39;4.50;86.00
51719;DHT22;37795;53.236;5.704;2023-01-09T03:51:05;4.50;86.50
51719;DHT22;37795;53.236;5.704;2023-01-09T03:53:31;4.60;87.00
51719;DHT22;37795;53.236;5.704;2023-01-09T03:55:57;4.60;86.80
51719;DHT22;37795;53.236;5.704;2023-01-09T03:58:23;4.60;86.70
51719;DHT22;37795;53.236;5.704;2023-01-09T04:00:50;4.60;87.00
51719;DHT22;37795;53.236;5.704;2023-01-09T04:03:20;4.60;87.20
51719;DHT22;37795;53.236;5.704;2023-01-09T04:05:47;4.60;87.20
51719;DHT22;37795;53.236;5.704;2023-01-09T04:08:13;4.60;87.60
51719;DHT22;37795;53.236;5.704;2023-01-09T04:10:42;4.70;87.40
51719;DHT22;37795;53.236;5.704;2023-01-09T04:13:08;4.70;87.50
51719;DHT22;37795;53.236;5.704;2023-01-09T04:15:33;4.70;87.50
51719;DHT22;37795;53.236;5.704;2023-01-09T04:17:59;4.80;87.50
51719;DHT22;37795;53.236;5.704;2023-01-09T04:20:25;4.70;87.80
51719;DHT22;37795;53.236;5.704;2023-01-09T04:22:50;4.80;88.00
51719;DHT22;37795;53.236;5.704;2023-01-09T04:25:16;4.80;88.00
51719;DHT22;37795;53.236;5.704;2023-01-09T04:27:42;4.90;88.20
51719;DHT22;37795;53.236;5.704;2023-01-09T04:30:08;5.00;88.00
51719;DHT22;37795;53.236;5.704;2023-01-09T04:32:34;5.00;87.90
51719;DHT22;37795;53.236;5.704;2023-01-09T04:34:59;5.10;87.90
51719;DHT22;37795;53.236;5.704;2023-01-09T04:37:25;5.10;87.90
51719;DHT22;37795;53.236;5.704;2023-01-09T04:39:51;5.10;87.90
51719;DHT22;37795;53.236;5.704;2023-01-09T04:42:20;5.10;87.80
51719;DHT22;37795;53.236;5.704;2023-01-09T04:44:46;5.10;87.70
51719;DHT22;37795;53.236;5.704;2023-01-09T04:47:11;5.10;87.80
51719;DHT22;37795;53.236;5.704;2023-01-09T04:49:38;5.10;87.70
51719;DHT22;37795;53.236;5.704;2023-01-09T04:52:04;5.10;87.60
51719;DHT22;37795;53.236;5.704;2023-01-09T04:54:30;5.10;87.60
51719;DHT22;37795;53.236;5.704;2023-01-09T04:56:55;5.10;87.60
51719;DHT22;37795;53.236;5.704;2023-01-09T04:59:21;5.10;87.60
51719;DHT22;37795;53.236;5.704;2023-01-09T05:01:47;5.10;87.70
51719;DHT22;37795;53.236;5.704;2023-01-09T05:04:13;5.20;87.80
51719;DHT22;37795;53.236;5.704;2023-01-09T05:06:38;5.20;87.80
51719;DHT22;37795;53.236;5.704;2023-01-09T05:09:04;5.20;87.80
51719;DHT22;37795;53.236;5.704;2023-01-09T05:11:30;5.30;87.70
51719;DHT22;37795;53.236;5.704;2023-01-09T05:13:55;5.30;87.60
51719;DHT22;37795;53.236;5.704;2023-01-09T05:16:21;5.30;87.60
51719;DHT22;37795;53.236;5.704;2023-01-09T05:18:47;5.40;87.40
51719;DHT22;37795;53.236;5.704;2023-01-09T05:21:13;5.40;87.40
51719;DHT22;37795;53.236;5.704;2023-01-09T05:23:39;5.40;87.30
51719;DHT22;37795;53.236;5.704;2023-01-09T05:26:05;5.40;87.30
51719;DHT22;37795;53.236;5.704;2023-01-09T05:28:32;5.50;87.40
51719;DHT22;37795;53.236;5.704;2023-01-09T05:30:58;5.50;87.40
51719;DHT22;37795;53.236;5.704;2023-01-09T05:33:23;5.50;87.30
51719;DHT22;37795;53.236;5.704;2023-01-09T05:35:49;5.60;87.20
51719;DHT22;37795;53.236;5.704;2023-01-09T05:38:15;5.60;87.00
51719;DHT22;37795;53.236;5.704;2023-01-09T05:40:41;5.60;87.00
51719;DHT22;37795;53.236;5.704;2023-01-09T05:43:07;5.70;86.90
51719;DHT22;37795;53.236;5.704;2023-01-09T05:45:32;5.70;87.00
51719;DHT22;37795;53.236;5.704;2023-01-09T05:47:58;5.60;87.10
51719;DHT22;37795;53.236;5.704;2023-01-09T05:50:24;5.70;87.20
51719;DHT22;37795;53.236;5.704;2023-01-09T05:52:49;5.70;87.10
51719;DHT22;37795;53.236;5.704;2023-01-09T05:55:15;5.70;86.90
51719;DHT22;37795;53.236;5.704;2023-01-09T05:57:41;5.70;86.70
51719;DHT22;37795;53.236;5.704;2023-01-09T06:00:07;5.70;86.60
51719;DHT22;37795;53.236;5.704;2023-01-09T06:02:33;5.80;86.50
51719;DHT22;37795;53.236;5.704;2023-01-09T06:04:59;5.70;86.40
51719;DHT22;37795;53.236;5.704;2023-01-09T06:07:25;5.70;86.40
51719;DHT22;37795;53.236;5.704;2023-01-09T06:09:50;5.80;86.10
51719;DHT22;37795;53.236;5.704;2023-01-09T06:12:16;5.80;86.00
51719;DHT22;37795;53.236;5.704;2023-01-09T06:14:42;5.80;86.00
51719;DHT22;37795;53.236;5.704;2023-01-09T06:17:07;5.80;86.00
51719;DHT22;37795;53.236;5.704;2023-01-09T06:19:33;5.80;86.00
51719;DHT22;37795;53.236;5.704;2023-01-09T06:21:59;5.80;86.00
51719;DHT22;37795;53.236;5.704;2023-01-09T06:24:25;5.80;85.80
51719;DHT22;37795;53.236;5.704;2023-01-09T06:26:51;5.80;85.80
51719;DHT22;37795;53.236;5.704;2023-01-09T06:29:16;5.80;85.70
51719;DHT22;37795;53.236;5.704;2023-01-09T06:31:42;5.70;85.90
51719;DHT22;37795;53.236;5.704;2023-01-09T06:34:08;5.70;85.90
51719;DHT22;37795;53.236;5.704;2023-01-09T06:36:34;5.60;85.70
51719;DHT22;37795;53.236;5.704;2023-01-09T06:38:59;5.50;85.50
51719;DHT22;37795;53.236;5.704;2023-01-09T06:41:25;5.50;85.60
51719;DHT22;37795;53.236;5.704;2023-01-09T06:43:51;5.40;85.70
51719;DHT22;37795;53.236;5.704;2023-01-09T06:46:17;5.40;85.40
51719;DHT22;37795;53.236;5.704;2023-01-09T06:48:42;5.40;85.70
51719;DHT22;37795;53.236;5.704;2023-01-09T06:58:25;5.80;85.70
51719;DHT22;37795;53.236;5.704;2023-01-09T07:00:51;5.40;85.90
51719;DHT22;37795;53.236;5.704;2023-01-09T07:03:18;5.40;85.70
51719;DHT22;37795;53.236;5.704;2023-01-09T07:05:45;5.40;85.90
51719;DHT22;37795;53.236;5.704;2023-01-09T07:08:11;5.40;85.80
51719;DHT22;37795;53.236;5.704;2023-01-09T07:10:39;5.50;85.80
51719;DHT22;37795;53.236;5.704;2023-01-09T07:13:05;5.50;85.90
51719;DHT22;37795;53.236;5.704;2023-01-09T07:15:31;5.50;85.50
51719;DHT22;37795;53.236;5.704;2023-01-09T07:17:56;5.50;85.70
51719;DHT22;37795;53.236;5.704;2023-01-09T07:20:22;5.50;85.50
51719;DHT22;37795;53.236;5.704;2023-01-09T07:22:48;5.50;85.60
51719;DHT22;37795;53.236;5.704;2023-01-09T07:25:14;5.50;85.70
51719;DHT22;37795;53.236;5.704;2023-01-09T07:27:39;5.50;85.50
51719;DHT22;37795;53.236;5.704;2023-01-09T07:30:06;5.50;85.50
51719;DHT22;37795;53.236;5.704;2023-01-09T07:32:32;5.50;85.60
51719;DHT22;37795;53.236;5.704;2023-01-09T07:34:58;5.60;85.60
51719;DHT22;37795;53.236;5.704;2023-01-09T07:37:24;5.60;85.50
51719;DHT22;37795;53.236;5.704;2023-01-09T07:39:49;5.50;85.30
51719;DHT22;37795;53.236;5.704;2023-01-09T07:42:15;5.60;85.30
51719;DHT22;37795;53.236;5.704;2023-01-09T07:44:41;5.60;85.30
51719;DHT22;37795;53.236;5.704;2023-01-09T07:47:07;5.60;85.20
51719;DHT22;37795;53.236;5.704;2023-01-09T07:49:33;5.60;85.10
51719;DHT22;37795;53.236;5.704;2023-01-09T07:51:59;5.60;85.10
51719;DHT22;37795;53.236;5.704;2023-01-09T07:54:24;5.60;85.10
51719;DHT22;37795;53.236;5.704;2023-01-09T07:56:50;5.60;85.10
51719;DHT22;37795;53.236;5.704;2023-01-09T07:59:16;5.60;85.10
51719;DHT22;37795;53.236;5.704;2023-01-09T08:01:41;5.60;85.10
51719;DHT22;37795;53.236;5.704;2023-01-09T08:04:07;5.60;85.10
51719;DHT22;37795;53.236;5.704;2023-01-09T08:06:33;5.70;85.20
51719;DHT22;37795;53.236;5.704;2023-01-09T08:08:58;5.70;85.00
51719;DHT22;37795;53.236;5.704;2023-01-09T08:11:24;5.70;85.10
51719;DHT22;37795;53.236;5.704;2023-01-09T08:13:50;5.70;85.00
51719;DHT22;37795;53.236;5.704;2023-01-09T08:16:16;5.70;84.90
51719;DHT22;37795;53.236;5.704;2023-01-09T08:18:42;5.70;84.90
51719;DHT22;37795;53.236;5.704;2023-01-09T08:21:08;5.70;84.70
51719;DHT22;37795;53.236;5.704;2023-01-09T08:23:36;5.70;84.70
51719;DHT22;37795;53.236;5.704;2023-01-09T08:26:02;5.60;84.70
51719;DHT22;37795;53.236;5.704;2023-01-09T08:28:28;5.60;84.60
51719;DHT22;37795;53.236;5.704;2023-01-09T08:30:54;5.60;84.50
51719;DHT22;37795;53.236;5.704;2023-01-09T08:33:20;5.60;84.50
51719;DHT22;37795;53.236;5.704;2023-01-09T08:35:45;5.60;84.50
51719;DHT22;37795;53.236;5.704;2023-01-09T08:38:11;5.60;84.50
51719;DHT22;37795;53.236;5.704;2023-01-09T08:40:37;5.60;84.50
51719;DHT22;37795;53.236;5.704;2023-01-09T08:43:03;5.60;84.50
51719;DHT22;37795;53.236;5.704;2023-01-09T08:45:47;5.60;84.40
51719;DHT22;37795;53.236;5.704;2023-01-09T08:48:31;5.70;84.50
51719;DHT22;37795;53.236;5.704;2023-01-09T08:50:56;5.70;84.50
51719;DHT22;37795;53.236;5.704;2023-01-09T08:53:22;5.70;84.50
51719;DHT22;37795;53.236;5.704;2023-01-09T08:55:48;5.70;84.40
51719;DHT22;37795;53.236;5.704;2023-01-09T08:58:13;5.70;84.40
51719;DHT22;37795;53.236;5.704;2023-01-09T09:00:39;5.70;84.40
51719;DHT22;37795;53.236;5.704;2023-01-09T09:03:05;5.70;84.50
51719;DHT22;37795;53.236;5.704;2023-01-09T09:05:31;5.70;84.50
51719;DHT22;37795;53.236;5.704;2023-01-09T09:07:58;5.70;84.40
51719;DHT22;37795;53.236;5.704;2023-01-09T09:10:28;5.70;84.50
51719;DHT22;37795;53.236;5.704;2023-01-09T09:12:56;5.60;84.50
51719;DHT22;37795;53.236;5.704;2023-01-09T09:15:22;5.60;84.60
51719;DHT22;37795;53.236;5.704;2023-01-09T09:20:21;5.70;84.70
51719;DHT22;37795;53.236;5.704;2023-01-09T09:22:47;5.70;84.50
51719;DHT22;37795;53.236;5.704;2023-01-09T09:25:14;5.70;84.50
51719;DHT22;37795;53.236;5.704;2023-01-09T09:27:40;5.80;84.60
51719;DHT22;37795;53.236;5.704;2023-01-09T09:30:07;5.80;84.50
51719;DHT22;37795;53.236;5.704;2023-01-09T09:32:33;5.70;84.30
51719;DHT22;37795;53.236;5.704;2023-01-09T09:34:59;5.80;84.50
51719;DHT22;37795;53.236;5.704;2023-01-09T09:37:25;5.80;84.50
51719;DHT22;37795;53.236;5.704;2023-01-09T09:39:50;5.80;84.50
51719;DHT22;37795;53.236;5.704;2023-01-09T09:53:31;6.00;85.00
51719;DHT22;37795;53.236;5.704;2023-01-09T09:55:59;6.00;84.90
51719;DHT22;37795;53.236;5.704;2023-01-09T09:58:37;6.10;84.90
51719;DHT22;37795;53.236;5.704;2023-01-09T10:01:05;6.10;84.60
51719;DHT22;37795;53.236;5.704;2023-01-09T10:04:02;6.00;84.40
51719;DHT22;37795;53.236;5.704;2023-01-09T10:06:36;5.90;85.00
51719;DHT22;37795;53.236;5.704;2023-01-09T10:12:12;6.00;84.90
51719;DHT22;37795;53.236;5.704;2023-01-09T10:14:41;6.10;85.10
51719;DHT22;37795;53.236;5.704;2023-01-09T10:31:05;6.00;85.30
51719;DHT22;37795;53.236;5.704;2023-01-09T10:39:59;6.00;85.10
51719;DHT22;37795;53.236;5.704;2023-01-09T10:42:45;5.90;85.60
51719;DHT22;37795;53.236;5.704;2023-01-09T10:47:41;6.10;85.90
51719;DHT22;37795;53.236;5.704;2023-01-09T10:58:25;6.60;85.60
51719;DHT22;37795;53.236;5.704;2023-01-09T11:00:51;6.30;85.50
51719;DHT22;37795;53.236;5.704;2023-01-09T11:03:20;6.20;85.20
51719;DHT22;37795;53.236;5.704;2023-01-09T11:05:50;6.30;85.20
51719;DHT22;37795;53.236;5.704;2023-01-09T11:08:39;6.30;85.20
51719;DHT22;37795;53.236;5.704;2023-01-09T11:11:07;6.30;85.50
51719;DHT22;37795;53.236;5.704;2023-01-09T11:13:35;6.30;85.50
51719;DHT22;37795;53.236;5.704;2023-01-09T11:16:13;6.30;85.10
51719;DHT22;37795;53.236;5.704;2023-01-09T11:18:52;6.30;85.70
51719;DHT22;37795;53.236;5.704;2023-01-09T11:21:33;6.30;85.60
51719;DHT22;37795;53.236;5.704;2023-01-09T11:24:32;6.30;85.80
51719;DHT22;37795;53.236;5.704;2023-01-09T11:27:17;6.40;85.80
51719;DHT22;37795;53.236;5.704;2023-01-09T11:32:30;6.50;85.80
51719;DHT22;37795;53.236;5.704;2023-01-09T11:34:56;6.60;85.60
51719;DHT22;37795;53.236;5.704;2023-01-09T11:37:26;6.70;85.20
51719;DHT22;37795;53.236;5.704;2023-01-09T11:39:53;6.70;85.40
51719;DHT22;37795;53.236;5.704;2023-01-09T11:42:29;6.70;84.80
51719;DHT22;37795;53.236;5.704;2023-01-09T11:45:20;6.70;85.30
51719;DHT22;37795;53.236;5.704;2023-01-09T11:47:46;6.80;85.10
51719;DHT22;37795;53.236;5.704;2023-01-09T11:50:24;6.80;84.80
51719;DHT22;37795;53.236;5.704;2023-01-09T11:53:16;6.80;85.00
51719;DHT22;37795;53.236;5.704;2023-01-09T11:55:43;6.90;85.20
51719;DHT22;37795;53.236;5.704;2023-01-09T11:58:19;6.90;85.20
51719;DHT22;37795;53.236;5.704;2023-01-09T12:12:19;7.10;85.30
51719;DHT22;37795;53.236;5.704;2023-01-09T12:15:39;7.10;85.10
51719;DHT22;37795;53.236;5.704;2023-01-09T12:20:31;7.20;84.40
51719;DHT22;37795;53.236;5.704;2023-01-09T12:28:38;7.30;84.20
51719;DHT22;37795;53.236;5.704;2023-01-09T12:33:46;7.40;83.80
51719;DHT22;37795;53.236;5.704;2023-01-09T12:52:45;7.80;81.20
51719;DHT22;37795;53.236;5.704;2023-01-09T12:55:23;7.90;80.90
51719;DHT22;37795;53.236;5.704;2023-01-09T12:57:54;7.90;80.50
51719;DHT22;37795;53.236;5.704;2023-01-09T13:00:27;8.00;79.80
51719;DHT22;37795;53.236;5.704;2023-01-09T13:03:25;8.00;80.10
51719;DHT22;37795;53.236;5.704;2023-01-09T13:05:53;7.90;79.80
51719;DHT22;37795;53.236;5.704;2023-01-09T13:08:38;8.00;80.00
51719;DHT22;37795;53.236;5.704;2023-01-09T13:11:15;8.10;80.00
51719;DHT22;37795;53.236;5.704;2023-01-09T13:14:09;8.20;79.70
51719;DHT22;37795;53.236;5.704;2023-01-09T13:16:45;8.20;79.70
51719;DHT22;37795;53.236;5.704;2023-01-09T13:19:33;8.20;78.30
51719;DHT22;37795;53.236;5.704;2023-01-09T13:22:02;8.20;79.00
51719;DHT22;37795;53.236;5.704;2023-01-09T13:27:19;8.30;78.30
51719;DHT22;37795;53.236;5.704;2023-01-09T13:29:49;8.20;78.10
51719;DHT22;37795;53.236;5.704;2023-01-09T13:34:59;8.00;79.00
51719;DHT22;37795;53.236;5.704;2023-01-09T13:37:26;8.00;79.70
51719;DHT22;37795;53.236;5.704;2023-01-09T13:40:18;8.00;79.40
51719;DHT22;37795;53.236;5.704;2023-01-09T13:43:01;8.00;80.00
51719;DHT22;37795;53.236;5.704;2023-01-09T13:45:30;8.00;80.10
51719;DHT22;37795;53.236;5.704;2023-01-09T13:48:24;8.00;80.10
51719;DHT22;37795;53.236;5.704;2023-01-09T13:50:50;7.90;80.10
51719;DHT22;37795;53.236;5.704;2023-01-09T13:56:10;7.80;80.90
51719;DHT22;37795;53.236;5.704;2023-01-09T13:58:57;7.70;81.00
51719;DHT22;37795;53.236;5.704;2023-01-09T14:07:20;7.60;81.60
51719;DHT22;37795;53.236;5.704;2023-01-09T14:09:53;7.60;81.40
51719;DHT22;37795;53.236;5.704;2023-01-09T14:12:21;7.60;81.60
51719;DHT22;37795;53.236;5.704;2023-01-09T14:14:47;7.70;81.80
51719;DHT22;37795;53.236;5.704;2023-01-09T14:17:22;7.60;81.90
51719;DHT22;37795;53.236;5.704;2023-01-09T14:19:54;7.60;82.20
51719;DHT22;37795;53.236;5.704;2023-01-09T14:22:29;7.60;82.20
51719;DHT22;37795;53.236;5.704;2023-01-09T14:25:08;7.60;81.90
51719;DHT22;37795;53.236;5.704;2023-01-09T14:28:02;7.60;81.80
51719;DHT22;37795;53.236;5.704;2023-01-09T14:36:16;7.50;82.10
51719;DHT22;37795;53.236;5.704;2023-01-09T14:38:51;7.50;82.10
51719;DHT22;37795;53.236;5.704;2023-01-09T14:47:21;7.50;81.80
51719;DHT22;37795;53.236;5.704;2023-01-09T14:50:19;7.40;81.70
51719;DHT22;37795;53.236;5.704;2023-01-09T14:52:54;7.40;82.20
51719;DHT22;37795;53.236;5.704;2023-01-09T14:55:26;7.40;82.20
51719;DHT22;37795;53.236;5.704;2023-01-09T14:57:54;7.50;82.10
51719;DHT22;37795;53.236;5.704;2023-01-09T15:00:22;7.40;81.90
51719;DHT22;37795;53.236;5.704;2023-01-09T15:02:49;7.30;82.20
51719;DHT22;37795;53.236;5.704;2023-01-09T15:05:19;7.30;81.80
51719;DHT22;37795;53.236;5.704;2023-01-09T15:07:57;7.30;82.40
51719;DHT22;37795;53.236;5.704;2023-01-09T15:10:28;7.30;82.40
51719;DHT22;37795;53.236;5.704;2023-01-09T15:12:57;7.30;82.20
51719;DHT22;37795;53.236;5.704;2023-01-09T15:15:24;7.20;82.40
51719;DHT22;37795;53.236;5.704;2023-01-09T15:20:25;7.20;82.30
51719;DHT22;37795;53.236;5.704;2023-01-09T15:22:52;7.20;82.60
51719;DHT22;37795;53.236;5.704;2023-01-09T15:25:35;7.10;82.50
51719;DHT22;37795;53.236;5.704;2023-01-09T15:28:28;7.10;82.90
51719;DHT22;37795;53.236;5.704;2023-01-09T15:31:15;7.10;83.00
51719;DHT22;37795;53.236;5.704;2023-01-09T15:33:44;7.10;82.90
51719;DHT22;37795;53.236;5.704;2023-01-09T15:36:22;7.10;83.10
51719;DHT22;37795;53.236;5.704;2023-01-09T15:38:49;7.10;82.70
51719;DHT22;37795;53.236;5.704;2023-01-09T15:41:27;7.10;82.90
51719;DHT22;37795;53.236;5.704;2023-01-09T15:44:17;7.10;82.90
51719;DHT22;37795;53.236;5.704;2023-01-09T15:46:44;7.10;82.90
51719;DHT22;37795;53.236;5.704;2023-01-09T15:49:11;7.10;83.10
51719;DHT22;37795;53.236;5.704;2023-01-09T15:51:41;7.10;82.80
51719;DHT22;37795;53.236;5.704;2023-01-09T15:54:13;7.10;83.40
51719;DHT22;37795;53.236;5.704;2023-01-09T15:56:40;7.00;83.20
51719;DHT22;37795;53.236;5.704;2023-01-09T15:59:22;7.00;83.50
51719;DHT22;37795;53.236;5.704;2023-01-09T16:02:00;7.00;83.20
51719;DHT22;37795;53.236;5.704;2023-01-09T16:04:48;7.00;83.30
51719;DHT22;37795;53.236;5.704;2023-01-09T16:07:19;7.00;82.50
51719;DHT22;37795;53.236;5.704;2023-01-09T16:09:46;6.90;82.40
51719;DHT22;37795;53.236;5.704;2023-01-09T16:12:21;6.90;82.30
51719;DHT22;37795;53.236;5.704;2023-01-09T16:14:53;6.80;82.40
51719;DHT22;37795;53.236;5.704;2023-01-09T16:17:20;6.90;82.80
51719;DHT22;37795;53.236;5.704;2023-01-09T16:19:51;6.80;82.60
51719;DHT22;37795;53.236;5.704;2023-01-09T16:22:31;6.70;82.90
51719;DHT22;37795;53.236;5.704;2023-01-09T16:28:14;6.60;83.20
51719;DHT22;37795;53.236;5.704;2023-01-09T16:31:01;6.60;83.40
51719;DHT22;37795;53.236;5.704;2023-01-09T16:33:29;6.50;83.40
51719;DHT22;37795;53.236;5.704;2023-01-09T16:35:55;6.60;83.20
51719;DHT22;37795;53.236;5.704;2023-01-09T16:38:23;6.50;83.00
51719;DHT22;37795;53.236;5.704;2023-01-09T16:41:07;6.50;83.40
51719;DHT22;37795;53.236;5.704;2023-01-09T16:43:56;6.50;83.00
51719;DHT22;37795;53.236;5.704;2023-01-09T16:46:22;6.40;82.80
51719;DHT22;37795;53.236;5.704;2023-01-09T16:48:48;6.40;82.90
51719;DHT22;37795;53.236;5.704;2023-01-09T16:51:21;6.40;83.20
51719;DHT22;37795;53.236;5.704;2023-01-09T16:53:47;6.30;83.10
51719;DHT22;37795;53.236;5.704;2023-01-09T16:56:20;6.30;83.00
51719;DHT22;37795;53.236;5.704;2023-01-09T16:58:48;6.30;82.90
51719;DHT22;37795;53.236;5.704;2023-01-09T17:01:14;6.30;83.00
51719;DHT22;37795;53.236;5.704;2023-01-09T17:03:41;6.30;82.50
51719;DHT22;37795;53.236;5.704;2023-01-09T17:06:13;6.20;82.70
51719;DHT22;37795;53.236;5.704;2023-01-09T17:08:40;6.10;82.90
51719;DHT22;37795;53.236;5.704;2023-01-09T17:11:07;6.10;83.10
51719;DHT22;37795;53.236;5.704;2023-01-09T17:13:36;6.00;83.00
51719;DHT22;37795;53.236;5.704;2023-01-09T17:16:03;6.00;83.30
51719;DHT22;37795;53.236;5.704;2023-01-09T17:18:29;5.90;83.40
51719;DHT22;37795;53.236;5.704;2023-01-09T17:20:56;5.90;83.60
51719;DHT22;37795;53.236;5.704;2023-01-09T17:23:22;5.90;83.70
51719;DHT22;37795;53.236;5.704;2023-01-09T17:25:56;5.90;83.90
51719;DHT22;37795;53.236;5.704;2023-01-09T17:28:50;5.90;83.80
51719;DHT22;37795;53.236;5.704;2023-01-09T17:31:17;5.90;83.90
51719;DHT22;37795;53.236;5.704;2023-01-09T17:33:42;5.90;83.90
51719;DHT22;37795;53.236;5.704;2023-01-09T17:36:29;5.90;83.90
51719;DHT22;37795;53.236;5.704;2023-01-09T17:38:57;6.00;84.00
51719;DHT22;37795;53.236;5.704;2023-01-09T17:41:32;5.90;83.80
51719;DHT22;37795;53.236;5.704;2023-01-09T17:43:58;5.90;83.70
51719;DHT22;37795;53.236;5.704;2023-01-09T17:46:30;5.90;83.90
51719;DHT22;37795;53.236;5.704;2023-01-09T17:48:57;5.80;83.90
51719;DHT22;37795;53.236;5.704;2023-01-09T17:51:23;5.90;83.70
51719;DHT22;37795;53.236;5.704;2023-01-09T17:53:49;5.90;84.00
51719;DHT22;37795;53.236;5.704;2023-01-09T17:56:18;6.00;83.80
51719;DHT22;37795;53.236;5.704;2023-01-09T17:58:45;6.00;83.70
51719;DHT22;37795;53.236;5.704;2023-01-09T18:01:11;5.90;83.80
51719;DHT22;37795;53.236;5.704;2023-01-09T18:03:38;5.80;84.00
51719;DHT22;37795;53.236;5.704;2023-01-09T18:06:05;5.80;83.90
51719;DHT22;37795;53.236;5.704;2023-01-09T18:08:32;5.70;83.90
51719;DHT22;37795;53.236;5.704;2023-01-09T18:11:01;5.70;84.00
51719;DHT22;37795;53.236;5.704;2023-01-09T18:13:27;5.80;84.10
51719;DHT22;37795;53.236;5.704;2023-01-09T18:15:53;5.70;83.90
51719;DHT22;37795;53.236;5.704;2023-01-09T18:18:18;5.60;84.00
51719;DHT22;37795;53.236;5.704;2023-01-09T18:20:44;5.60;84.00
51719;DHT22;37795;53.236;5.704;2023-01-09T18:23:11;5.60;84.10
51719;DHT22;37795;53.236;5.704;2023-01-09T18:25:41;5.60;84.20
51719;DHT22;37795;53.236;5.704;2023-01-09T18:28:07;5.60;84.00